THYB8K LTBU-LTFE
Flight info
| Callsign | THYB8K |
|---|---|
| Flight time | 0h 53m |
| Altitude | 30000 |
| Route | EKI G80 AKBUK |
| Aircraft | A320/M-SDE3FGHIRWY/LB1 |
Departure
| Time | 2026-04-28 14:24 |
|---|---|
| Airport | Tekirdağ Çorlu Airport (LTBU) |
Arrival
| Time | 2026-04-28 15:18 |
|---|---|
| Airport | Milas Bodrum International Airport (LTFE) |
| Time | Latitude | Longitude | Altitude | Speed | Heading |
|---|---|---|---|---|---|
| 2026-04-28 13:56 | 41.12774 | 27.90777 | 527 ft | 0 kts | 227° |
| 2026-04-28 14:13 | 41.12777 | 27.90781 | 527 ft | 2 kts | 227° |
| 2026-04-28 14:14 | 41.12788 | 27.90797 | 425 ft | 2 kts | 227° |
| 2026-04-28 14:14 | 41.12799 | 27.90813 | 527 ft | 2 kts | 227° |
| 2026-04-28 14:14 | 41.12810 | 27.90829 | 528 ft | 2 kts | 227° |
| 2026-04-28 14:14 | 41.12821 | 27.90845 | 528 ft | 2 kts | 227° |
| 2026-04-28 14:15 | 41.12833 | 27.90862 | 528 ft | 2 kts | 227° |
| 2026-04-28 14:15 | 41.12844 | 27.90878 | 529 ft | 2 kts | 227° |
| 2026-04-28 14:15 | 41.12855 | 27.90894 | 529 ft | 2 kts | 227° |
| 2026-04-28 14:15 | 41.12859 | 27.90899 | 529 ft | 0 kts | 227° |
| 2026-04-28 14:17 | 41.12858 | 27.90899 | 529 ft | 0 kts | 227° |
| 2026-04-28 14:18 | 41.12855 | 27.90894 | 529 ft | 1 kts | 229° |
| 2026-04-28 14:18 | 41.12850 | 27.90882 | 529 ft | 1 kts | 246° |
| 2026-04-28 14:18 | 41.12851 | 27.90870 | 528 ft | 2 kts | 277° |
| 2026-04-28 14:18 | 41.12851 | 27.90811 | 527 ft | 9 kts | 257° |
| 2026-04-28 14:19 | 41.12836 | 27.90746 | 526 ft | 4 kts | 254° |
| 2026-04-28 14:19 | 41.12830 | 27.90702 | 525 ft | 6 kts | 266° |
| 2026-04-28 14:19 | 41.12839 | 27.90686 | 524 ft | 2 kts | 324° |
| 2026-04-28 14:19 | 41.12857 | 27.90669 | 523 ft | 4 kts | 324° |
| 2026-04-28 14:20 | 41.12891 | 27.90634 | 521 ft | 10 kts | 314° |
| 2026-04-28 14:20 | 41.12966 | 27.90589 | 519 ft | 9 kts | 36° |
| 2026-04-28 14:20 | 41.13031 | 27.90686 | 522 ft | 23 kts | 50° |
| 2026-04-28 14:20 | 41.13170 | 27.90894 | 528 ft | 37 kts | 48° |
| 2026-04-28 14:21 | 41.13356 | 27.91193 | 533 ft | 46 kts | 48° |
| 2026-04-28 14:21 | 41.13570 | 27.91495 | 539 ft | 43 kts | 47° |
| 2026-04-28 14:21 | 41.13761 | 27.91777 | 547 ft | 40 kts | 54° |
| 2026-04-28 14:21 | 41.13946 | 27.92084 | 557 ft | 45 kts | 55° |
| 2026-04-28 14:22 | 41.14165 | 27.92387 | 558 ft | 47 kts | 51° |
| 2026-04-28 14:22 | 41.14372 | 27.92712 | 568 ft | 46 kts | 52° |
| 2026-04-28 14:22 | 41.14558 | 27.93024 | 579 ft | 33 kts | 50° |
| 2026-04-28 14:22 | 41.14619 | 27.93073 | 576 ft | 5 kts | 15° |
| 2026-04-28 14:23 | 41.14685 | 27.93137 | 574 ft | 10 kts | 80° |
| 2026-04-28 14:23 | 41.14662 | 27.93156 | 576 ft | 7 kts | 184° |
| 2026-04-28 14:23 | 41.14645 | 27.93140 | 576 ft | 0 kts | 229° |
| 2026-04-28 14:23 | 41.14644 | 27.93138 | 576 ft | 0 kts | 229° |
| 2026-04-28 14:24 | 41.14619 | 27.93101 | 579 ft | 31 kts | 227° |
| 2026-04-28 14:24 | 41.14271 | 27.92577 | 565 ft | 115 kts | 233° |
| 2026-04-28 14:24 | 41.13630 | 27.91565 | 665 ft | 155 kts | 230° |
| 2026-04-28 14:24 | 41.13181 | 27.90193 | 1240 ft | 170 kts | 245° |
| 2026-04-28 14:25 | 41.12768 | 27.89306 | 1767 ft | 173 kts | 230° |
| 2026-04-28 14:25 | 41.11651 | 27.87759 | 2725 ft | 178 kts | 225° |
| 2026-04-28 14:25 | 41.11045 | 27.86975 | 3070 ft | 189 kts | 225° |
| 2026-04-28 14:25 | 41.09746 | 27.85252 | 3733 ft | 211 kts | 227° |
| 2026-04-28 14:26 | 41.08682 | 27.83780 | 4248 ft | 230 kts | 229° |
| 2026-04-28 14:26 | 41.07553 | 27.82164 | 4916 ft | 248 kts | 230° |
| 2026-04-28 14:26 | 41.06757 | 27.80988 | 5332 ft | 259 kts | 234° |
| 2026-04-28 14:26 | 41.05882 | 27.78864 | 6014 ft | 270 kts | 251° |
| 2026-04-28 14:27 | 41.05170 | 27.76495 | 6792 ft | 281 kts | 252° |
| 2026-04-28 14:27 | 41.04467 | 27.74117 | 7971 ft | 268 kts | 252° |
| 2026-04-28 14:27 | 41.03811 | 27.71903 | 9471 ft | 247 kts | 252° |
| 2026-04-28 14:27 | 41.03200 | 27.69838 | 10655 ft | 238 kts | 252° |
| 2026-04-28 14:28 | 41.02599 | 27.67801 | 11502 ft | 238 kts | 251° |
| 2026-04-28 14:28 | 41.01997 | 27.65754 | 12302 ft | 239 kts | 251° |
| 2026-04-28 14:28 | 41.01387 | 27.63693 | 13111 ft | 241 kts | 251° |
| 2026-04-28 14:28 | 41.00769 | 27.61618 | 13925 ft | 243 kts | 250° |
| 2026-04-28 14:29 | 41.00146 | 27.59529 | 14655 ft | 245 kts | 251° |
| 2026-04-28 14:29 | 40.99520 | 27.57425 | 15367 ft | 247 kts | 251° |
| 2026-04-28 14:29 | 40.98887 | 27.55296 | 16075 ft | 249 kts | 251° |
| 2026-04-28 14:29 | 40.98256 | 27.53176 | 16775 ft | 252 kts | 251° |
| 2026-04-28 14:30 | 40.97613 | 27.51012 | 17475 ft | 254 kts | 251° |
| 2026-04-28 14:30 | 40.96870 | 27.48875 | 18180 ft | 258 kts | 243° |
| 2026-04-28 14:30 | 40.95843 | 27.46908 | 18809 ft | 263 kts | 233° |
| 2026-04-28 14:30 | 40.94542 | 27.45180 | 19382 ft | 269 kts | 223° |
| 2026-04-28 14:31 | 40.92989 | 27.43759 | 19944 ft | 275 kts | 212° |
| 2026-04-28 14:31 | 40.91228 | 27.42720 | 20501 ft | 281 kts | 201° |
| 2026-04-28 14:31 | 40.89306 | 27.42110 | 21041 ft | 288 kts | 190° |
| 2026-04-28 14:31 | 40.87286 | 27.41894 | 21575 ft | 293 kts | 187° |
| 2026-04-28 14:32 | 40.85237 | 27.41710 | 22121 ft | 297 kts | 187° |
| 2026-04-28 14:32 | 40.83162 | 27.41519 | 22665 ft | 301 kts | 187° |
| 2026-04-28 14:32 | 40.81058 | 27.41326 | 23217 ft | 304 kts | 187° |
| 2026-04-28 14:32 | 40.78957 | 27.41135 | 23728 ft | 308 kts | 187° |
| 2026-04-28 14:33 | 40.76804 | 27.40938 | 24168 ft | 312 kts | 187° |
| 2026-04-28 14:33 | 40.74628 | 27.40738 | 24615 ft | 315 kts | 187° |
| 2026-04-28 14:33 | 40.72431 | 27.40536 | 25055 ft | 318 kts | 187° |
| 2026-04-28 14:33 | 40.70210 | 27.40331 | 25502 ft | 321 kts | 186° |
| 2026-04-28 14:34 | 40.65703 | 27.39926 | 26372 ft | 327 kts | 186° |
| 2026-04-28 14:34 | 40.63418 | 27.39723 | 26793 ft | 330 kts | 186° |
| 2026-04-28 14:34 | 40.61110 | 27.39517 | 27226 ft | 334 kts | 186° |
| 2026-04-28 14:35 | 40.58783 | 27.39308 | 27635 ft | 337 kts | 186° |
| 2026-04-28 14:35 | 40.56434 | 27.39094 | 28056 ft | 340 kts | 186° |
| 2026-04-28 14:35 | 40.54064 | 27.38877 | 28461 ft | 343 kts | 186° |
| 2026-04-28 14:35 | 40.51672 | 27.38654 | 28869 ft | 346 kts | 186° |
| 2026-04-28 14:36 | 40.49257 | 27.38430 | 29279 ft | 349 kts | 186° |
| 2026-04-28 14:36 | 40.46818 | 27.38207 | 29661 ft | 353 kts | 186° |
| 2026-04-28 14:36 | 40.44360 | 27.37984 | 30037 ft | 357 kts | 186° |
| 2026-04-28 14:36 | 40.41841 | 27.37758 | 30103 ft | 370 kts | 186° |
| 2026-04-28 14:37 | 40.39228 | 27.37519 | 30107 ft | 384 kts | 186° |
| 2026-04-28 14:37 | 40.36511 | 27.37268 | 30106 ft | 399 kts | 186° |
| 2026-04-28 14:37 | 40.33688 | 27.37010 | 30105 ft | 413 kts | 186° |
| 2026-04-28 14:37 | 40.30765 | 27.36741 | 30101 ft | 427 kts | 186° |
| 2026-04-28 14:38 | 40.27800 | 27.36456 | 30102 ft | 439 kts | 187° |
| 2026-04-28 14:38 | 40.24724 | 27.36029 | 30099 ft | 450 kts | 189° |
| 2026-04-28 14:38 | 40.21589 | 27.35465 | 30101 ft | 459 kts | 190° |
| 2026-04-28 14:39 | 40.15250 | 27.34153 | 30102 ft | 461 kts | 191° |
| 2026-04-28 14:39 | 40.08901 | 27.32853 | 30096 ft | 462 kts | 190° |
| 2026-04-28 14:40 | 40.02541 | 27.31652 | 30094 ft | 462 kts | 189° |
| 2026-04-28 14:40 | 39.96164 | 27.30497 | 30090 ft | 462 kts | 189° |
| 2026-04-28 14:41 | 39.89792 | 27.29338 | 30080 ft | 462 kts | 189° |
| 2026-04-28 14:41 | 39.83458 | 27.28157 | 30077 ft | 463 kts | 189° |
| 2026-04-28 14:42 | 39.77067 | 27.26985 | 30066 ft | 463 kts | 189° |
| 2026-04-28 14:42 | 39.70676 | 27.25911 | 30055 ft | 464 kts | 188° |
| 2026-04-28 14:43 | 39.64265 | 27.24859 | 30056 ft | 465 kts | 188° |
| 2026-04-28 14:43 | 39.57847 | 27.23787 | 30070 ft | 464 kts | 188° |
| 2026-04-28 14:44 | 39.51438 | 27.22708 | 30063 ft | 465 kts | 188° |
| 2026-04-28 14:44 | 39.45033 | 27.21590 | 30064 ft | 464 kts | 189° |
| 2026-04-28 14:45 | 39.38629 | 27.20390 | 30057 ft | 465 kts | 189° |
| 2026-04-28 14:45 | 39.32223 | 27.19187 | 30044 ft | 465 kts | 189° |
| 2026-04-28 14:46 | 39.25811 | 27.18001 | 30043 ft | 465 kts | 189° |
| 2026-04-28 14:46 | 39.19395 | 27.16831 | 30038 ft | 465 kts | 188° |
| 2026-04-28 14:47 | 39.13029 | 27.15675 | 30037 ft | 465 kts | 188° |
| 2026-04-28 14:47 | 39.06617 | 27.14499 | 30029 ft | 465 kts | 188° |
| 2026-04-28 14:48 | 39.00200 | 27.13324 | 30028 ft | 465 kts | 188° |
| 2026-04-28 14:48 | 38.93795 | 27.12154 | 30028 ft | 464 kts | 188° |
| 2026-04-28 14:49 | 38.87393 | 27.10968 | 30027 ft | 464 kts | 188° |
| 2026-04-28 14:49 | 38.81003 | 27.09773 | 30030 ft | 464 kts | 188° |
| 2026-04-28 14:50 | 38.74620 | 27.08587 | 30023 ft | 463 kts | 188° |
| 2026-04-28 14:50 | 38.68283 | 27.07415 | 30021 ft | 463 kts | 188° |
| 2026-04-28 14:51 | 38.61909 | 27.06243 | 30015 ft | 467 kts | 189° |
| 2026-04-28 14:51 | 38.55394 | 27.05058 | 30008 ft | 474 kts | 189° |
| 2026-04-28 14:52 | 38.48878 | 27.03864 | 29290 ft | 471 kts | 189° |
| 2026-04-28 14:52 | 38.45619 | 27.03267 | 27739 ft | 470 kts | 189° |
| 2026-04-28 14:52 | 38.42385 | 27.02676 | 26125 ft | 467 kts | 189° |
| 2026-04-28 14:52 | 38.39188 | 27.02091 | 24794 ft | 459 kts | 189° |
| 2026-04-28 14:53 | 38.36059 | 27.01530 | 23594 ft | 450 kts | 187° |
| 2026-04-28 14:53 | 38.33020 | 27.01467 | 22787 ft | 433 kts | 176° |
| 2026-04-28 14:53 | 38.30114 | 27.02035 | 22249 ft | 413 kts | 167° |
| 2026-04-28 14:53 | 38.27440 | 27.03130 | 21708 ft | 396 kts | 158° |
| 2026-04-28 14:54 | 38.24932 | 27.04507 | 21199 ft | 391 kts | 157° |
| 2026-04-28 14:54 | 38.22438 | 27.05890 | 20697 ft | 390 kts | 157° |
| 2026-04-28 14:54 | 38.19961 | 27.07267 | 20204 ft | 387 kts | 157° |
| 2026-04-28 14:54 | 38.17508 | 27.08631 | 19719 ft | 384 kts | 157° |
| 2026-04-28 14:55 | 38.15071 | 27.09983 | 19232 ft | 381 kts | 157° |
| 2026-04-28 14:55 | 38.12646 | 27.11327 | 18739 ft | 378 kts | 157° |
| 2026-04-28 14:55 | 38.10241 | 27.12656 | 18234 ft | 377 kts | 157° |
| 2026-04-28 14:55 | 38.07838 | 27.13980 | 17674 ft | 375 kts | 158° |
| 2026-04-28 14:56 | 38.05456 | 27.15292 | 17156 ft | 372 kts | 158° |
| 2026-04-28 14:56 | 38.03087 | 27.16599 | 16637 ft | 369 kts | 158° |
| 2026-04-28 14:56 | 38.00738 | 27.17897 | 16102 ft | 368 kts | 158° |
| 2026-04-28 14:56 | 37.98403 | 27.19186 | 15621 ft | 365 kts | 158° |
| 2026-04-28 14:57 | 37.96085 | 27.20465 | 15115 ft | 363 kts | 158° |
| 2026-04-28 14:57 | 37.94555 | 27.21308 | 14763 ft | 362 kts | 158° |
| 2026-04-28 14:57 | 37.91472 | 27.23006 | 14043 ft | 361 kts | 158° |
| 2026-04-28 14:57 | 37.89173 | 27.24268 | 13479 ft | 360 kts | 158° |
| 2026-04-28 14:58 | 37.86883 | 27.25525 | 12913 ft | 357 kts | 158° |
| 2026-04-28 14:58 | 37.84609 | 27.26773 | 12363 ft | 355 kts | 158° |
| 2026-04-28 14:58 | 37.82351 | 27.28011 | 11801 ft | 353 kts | 158° |
| 2026-04-28 14:58 | 37.80105 | 27.29241 | 11238 ft | 351 kts | 158° |
| 2026-04-28 14:59 | 37.77872 | 27.30460 | 10670 ft | 349 kts | 158° |
| 2026-04-28 14:59 | 37.75668 | 27.31665 | 10409 ft | 338 kts | 158° |
| 2026-04-28 14:59 | 37.73588 | 27.32804 | 10287 ft | 324 kts | 158° |
| 2026-04-28 14:59 | 37.71567 | 27.33914 | 10162 ft | 310 kts | 158° |
| 2026-04-28 15:00 | 37.69626 | 27.34979 | 9982 ft | 300 kts | 158° |
| 2026-04-28 15:00 | 37.67735 | 27.36012 | 9813 ft | 295 kts | 158° |
| 2026-04-28 15:00 | 37.65858 | 27.37034 | 9407 ft | 293 kts | 158° |
| 2026-04-28 15:00 | 37.63992 | 27.38050 | 9009 ft | 291 kts | 158° |
| 2026-04-28 15:01 | 37.62142 | 27.39064 | 8617 ft | 288 kts | 157° |
| 2026-04-28 15:01 | 37.60325 | 27.40093 | 8224 ft | 285 kts | 156° |
| 2026-04-28 15:01 | 37.58525 | 27.41131 | 7843 ft | 283 kts | 156° |
| 2026-04-28 15:01 | 37.56746 | 27.42165 | 7461 ft | 280 kts | 156° |
| 2026-04-28 15:02 | 37.55005 | 27.43174 | 7085 ft | 269 kts | 156° |
| 2026-04-28 15:02 | 37.53343 | 27.44134 | 6735 ft | 259 kts | 156° |
| 2026-04-28 15:02 | 37.51713 | 27.45071 | 6388 ft | 257 kts | 156° |
| 2026-04-28 15:02 | 37.50097 | 27.46002 | 6021 ft | 254 kts | 154° |
| 2026-04-28 15:03 | 37.48600 | 27.47095 | 5884 ft | 243 kts | 149° |
| 2026-04-28 15:03 | 37.47127 | 27.48184 | 5840 ft | 246 kts | 150° |
| 2026-04-28 15:03 | 37.45645 | 27.49266 | 5770 ft | 248 kts | 150° |
| 2026-04-28 15:03 | 37.44101 | 27.50390 | 5683 ft | 266 kts | 150° |
| 2026-04-28 15:04 | 37.42457 | 27.51586 | 5596 ft | 276 kts | 150° |
| 2026-04-28 15:04 | 37.40793 | 27.52800 | 5508 ft | 276 kts | 150° |
| 2026-04-28 15:04 | 37.39134 | 27.54014 | 5416 ft | 274 kts | 150° |
| 2026-04-28 15:04 | 37.37538 | 27.55180 | 5330 ft | 257 kts | 149° |
| 2026-04-28 15:05 | 37.36038 | 27.56279 | 5253 ft | 242 kts | 149° |
| 2026-04-28 15:05 | 37.34579 | 27.57347 | 5174 ft | 243 kts | 149° |
| 2026-04-28 15:05 | 37.33124 | 27.58409 | 4968 ft | 241 kts | 149° |
| 2026-04-28 15:05 | 37.31673 | 27.59461 | 4571 ft | 241 kts | 149° |
| 2026-04-28 15:06 | 37.30218 | 27.60506 | 4416 ft | 242 kts | 149° |
| 2026-04-28 15:06 | 37.28751 | 27.61556 | 4417 ft | 242 kts | 149° |
| 2026-04-28 15:06 | 37.27287 | 27.62606 | 4636 ft | 243 kts | 149° |
| 2026-04-28 15:06 | 37.25822 | 27.63659 | 4771 ft | 242 kts | 149° |
| 2026-04-28 15:07 | 37.24371 | 27.64724 | 4811 ft | 242 kts | 145° |
| 2026-04-28 15:07 | 37.23040 | 27.65957 | 4813 ft | 230 kts | 141° |
| 2026-04-28 15:07 | 37.21868 | 27.67219 | 4803 ft | 214 kts | 137° |
| 2026-04-28 15:07 | 37.20803 | 27.68436 | 4808 ft | 209 kts | 136° |
| 2026-04-28 15:08 | 37.19896 | 27.69843 | 4821 ft | 208 kts | 116° |
| 2026-04-28 15:08 | 37.19285 | 27.71487 | 4812 ft | 208 kts | 112° |
| 2026-04-28 15:08 | 37.18722 | 27.73159 | 4808 ft | 208 kts | 111° |
| 2026-04-28 15:08 | 37.18168 | 27.74824 | 4842 ft | 203 kts | 111° |
| 2026-04-28 15:09 | 37.17644 | 27.76395 | 4819 ft | 188 kts | 111° |
| 2026-04-28 15:09 | 37.17145 | 27.77888 | 4805 ft | 186 kts | 111° |
| 2026-04-28 15:09 | 37.16649 | 27.79380 | 4800 ft | 186 kts | 111° |
| 2026-04-28 15:09 | 37.16319 | 27.80373 | 4805 ft | 186 kts | 111° |
| 2026-04-28 15:10 | 37.15654 | 27.82377 | 4807 ft | 186 kts | 111° |
| 2026-04-28 15:10 | 37.15157 | 27.83876 | 4807 ft | 186 kts | 111° |
| 2026-04-28 15:10 | 37.14660 | 27.85377 | 4801 ft | 187 kts | 111° |
| 2026-04-28 15:10 | 37.14174 | 27.86861 | 4803 ft | 186 kts | 109° |
| 2026-04-28 15:11 | 37.14119 | 27.88440 | 4806 ft | 179 kts | 70° |
| 2026-04-28 15:11 | 37.14808 | 27.89578 | 4794 ft | 155 kts | 36° |
| 2026-04-28 15:11 | 37.15647 | 27.90327 | 4804 ft | 144 kts | 32° |
| 2026-04-28 15:11 | 37.16486 | 27.91005 | 4801 ft | 143 kts | 27° |
| 2026-04-28 15:12 | 37.17428 | 27.91342 | 4733 ft | 141 kts | 2° |
| 2026-04-28 15:12 | 37.18388 | 27.91139 | 4662 ft | 141 kts | 337° |
| 2026-04-28 15:12 | 37.19179 | 27.90430 | 4565 ft | 141 kts | 311° |
| 2026-04-28 15:12 | 37.19634 | 27.89346 | 4380 ft | 143 kts | 286° |
| 2026-04-28 15:13 | 37.19918 | 27.88159 | 4180 ft | 142 kts | 287° |
| 2026-04-28 15:13 | 37.20202 | 27.86983 | 3946 ft | 139 kts | 288° |
| 2026-04-28 15:13 | 37.20483 | 27.85817 | 3717 ft | 139 kts | 288° |
| 2026-04-28 15:13 | 37.20763 | 27.84660 | 3493 ft | 139 kts | 288° |
| 2026-04-28 15:14 | 37.21041 | 27.83502 | 3258 ft | 140 kts | 288° |
| 2026-04-28 15:14 | 37.21228 | 27.82728 | 3094 ft | 140 kts | 287° |
| 2026-04-28 15:14 | 37.21509 | 27.81560 | 2850 ft | 140 kts | 288° |
| 2026-04-28 15:14 | 37.21768 | 27.80485 | 2633 ft | 140 kts | 287° |
| 2026-04-28 15:15 | 37.22123 | 27.78939 | 2321 ft | 138 kts | 287° |
| 2026-04-28 15:15 | 37.22315 | 27.78157 | 2159 ft | 139 kts | 287° |
| 2026-04-28 15:15 | 37.22687 | 27.76634 | 1825 ft | 137 kts | 287° |
| 2026-04-28 15:15 | 37.22874 | 27.75859 | 1681 ft | 137 kts | 285° |
| 2026-04-28 15:16 | 37.23149 | 27.74718 | 1431 ft | 136 kts | 285° |
| 2026-04-28 15:16 | 37.23424 | 27.73575 | 1206 ft | 137 kts | 285° |
| 2026-04-28 15:16 | 37.23692 | 27.72458 | 967 ft | 135 kts | 283° |
| 2026-04-28 15:16 | 37.23963 | 27.71326 | 731 ft | 135 kts | 282° |
| 2026-04-28 15:17 | 37.24230 | 27.70208 | 504 ft | 133 kts | 281° |
| 2026-04-28 15:17 | 37.24494 | 27.69093 | 279 ft | 133 kts | 281° |
| 2026-04-28 15:17 | 37.24761 | 27.67972 | 57 ft | 133 kts | 283° |
| 2026-04-28 15:17 | 37.24998 | 27.66959 | 31 ft | 101 kts | 285° |
| 2026-04-28 15:18 | 37.25158 | 27.66330 | 30 ft | 52 kts | 286° |
| 2026-04-28 15:18 | 37.25239 | 27.65974 | 30 ft | 32 kts | 283° |
| 2026-04-28 15:18 | 37.25238 | 27.65703 | 29 ft | 22 kts | 259° |
| 2026-04-28 15:18 | 37.25231 | 27.65661 | 30 ft | 0 kts | 257° |
| 2026-04-28 15:21 | 37.25229 | 27.65656 | 30 ft | 4 kts | 255° |
| 2026-04-28 15:21 | 37.25188 | 27.65601 | 31 ft | 10 kts | 188° |
| 2026-04-28 15:21 | 37.25149 | 27.65661 | 30 ft | 14 kts | 105° |
| 2026-04-28 15:22 | 37.25100 | 27.65849 | 31 ft | 30 kts | 112° |
| 2026-04-28 15:22 | 37.25028 | 27.66154 | 31 ft | 42 kts | 109° |
| 2026-04-28 15:22 | 37.24933 | 27.66523 | 28 ft | 45 kts | 112° |
| 2026-04-28 15:22 | 37.24863 | 27.66854 | 28 ft | 36 kts | 110° |
| 2026-04-28 15:23 | 37.24836 | 27.67108 | 30 ft | 12 kts | 104° |
| 2026-04-28 15:23 | 37.24787 | 27.67200 | 30 ft | 17 kts | 116° |
| 2026-04-28 15:23 | 37.24734 | 27.67384 | 32 ft | 25 kts | 110° |
| 2026-04-28 15:23 | 37.24688 | 27.67574 | 33 ft | 15 kts | 108° |
| 2026-04-28 15:24 | 37.24654 | 27.67661 | 32 ft | 9 kts | 162° |
| 2026-04-28 15:24 | 37.24583 | 27.67647 | 32 ft | 12 kts | 197° |
| 2026-04-28 15:24 | 37.24519 | 27.67584 | 31 ft | 12 kts | 271° |
| 2026-04-28 15:24 | 37.24484 | 27.67529 | 31 ft | 5 kts | 184° |
| 2026-04-28 15:25 | 37.24451 | 27.67514 | 31 ft | 4 kts | 198° |
| 2026-04-28 15:25 | 37.24441 | 27.67510 | 31 ft | 0 kts | 198° |
| 2026-04-28 15:27 | 37.24440 | 27.67510 | 31 ft | 0 kts | 198° |